Time;durP1;ratioP1;P1;durP2;ratioP2;P2;SDS_P1;SDS_P2;PMS_P1;PMS_P2;Temp;Humidity;BMP_temperature;BMP_pressure;BME280_temperature;BME280_humidity;BME280_pressure;Samples;Min_cycle;Max_cycle;Signal;HPM_P1;HPM_P2
2022/04/22 00:01:55;;;;;;;35.03;28.35;;;8.80;99.90;;;;;;4974882;28;20677;-69
2022/04/22 00:04:22;;;;;;;38.95;27.63;;;8.80;99.90;;;;;;4976413;28;20112;-71
2022/04/22 00:06:49;;;;;;;33.05;28.38;;;8.80;99.90;;;;;;4976136;28;20073;-70
2022/04/22 00:09:15;;;;;;;34.65;28.08;;;8.80;99.90;;;;;;4974256;28;20108;-73
2022/04/22 00:11:42;;;;;;;35.47;27.98;;;8.80;99.90;;;;;;4994256;28;20034;-71
2022/04/22 00:14:09;;;;;;;37.17;27.92;;;8.80;99.90;;;;;;4976277;28;20054;-71
2022/04/22 00:16:35;;;;;;;38.05;28.50;;;8.80;99.90;;;;;;4994791;28;20077;-69
2022/04/22 00:19:03;;;;;;;36.55;29.30;;;8.80;99.90;;;;;;4989116;28;20042;-70
2022/04/22 00:21:29;;;;;;;39.88;29.75;;;8.80;99.90;;;;;;4973063;28;20042;-71
2022/04/22 00:23:56;;;;;;;48.67;28.70;;;8.80;99.90;;;;;;4972447;28;20054;-71
2022/04/22 00:26:23;;;;;;;39.85;29.63;;;8.80;99.90;;;;;;4973833;28;20034;-71
2022/04/22 00:28:51;;;;;;;41.88;29.60;;;8.80;99.90;;;;;;4974457;28;20116;-71
2022/04/22 00:31:19;;;;;;;31.42;26.90;;;8.80;99.90;;;;;;4987642;28;20113;-70
2022/04/22 00:33:46;;;;;;;38.45;30.85;;;8.80;99.90;;;;;;4995398;28;20042;-70
2022/04/22 00:36:13;;;;;;;40.80;29.60;;;8.80;99.90;;;;;;4994309;28;20049;-71
2022/04/22 00:38:39;;;;;;;40.17;32.50;;;8.80;99.90;;;;;;4975904;28;20049;-71
2022/04/22 00:41:06;;;;;;;46.22;32.47;;;8.80;99.90;;;;;;4969862;28;20050;-71
2022/04/22 00:43:44;;;;;;;43.85;32.45;;;8.80;99.90;;;;;;4976878;28;20050;-71
2022/04/22 00:46:12;;;;;;;42.90;32.97;;;8.80;99.90;;;;;;4974459;28;20108;-71
2022/04/22 00:48:39;;;;;;;41.83;32.00;;;8.80;99.90;;;;;;4983001;28;20043;-70
2022/04/22 00:51:07;;;;;;;45.33;34.00;;;8.80;99.90;;;;;;4972985;28;20046;-72
2022/04/22 00:53:35;;;;;;;43.90;31.77;;;8.80;99.90;;;;;;4975340;28;20125;-71
2022/04/22 00:56:06;;;;;;;40.60;31.15;;;8.80;99.90;;;;;;4975431;28;20126;-70
2022/04/22 00:58:39;;;;;;;47.40;33.47;;;8.80;99.90;;;;;;4995832;28;20056;-71
2022/04/22 01:01:06;;;;;;;41.95;31.88;;;8.80;99.90;;;;;;4995389;28;20046;-71
2022/04/22 01:03:33;;;;;;;46.38;34.38;;;8.80;99.90;;;;;;4994929;28;20057;-71
2022/04/22 01:11:36;;;;;;;48.25;35.75;;;8.70;99.90;;;;;;4976550;28;20132;-70
2022/04/22 01:14:05;;;;;;;52.78;34.97;;;8.70;99.90;;;;;;4981915;28;20080;-71
2022/04/22 01:16:32;;;;;;;52.05;35.83;;;8.70;99.90;;;;;;4993399;28;20860;-71
2022/04/22 01:18:59;;;;;;;53.53;36.40;;;8.70;99.90;;;;;;4987064;28;20051;-71
2022/04/22 01:21:26;;;;;;;47.15;34.67;;;8.70;99.90;;;;;;4973191;28;20062;-71
2022/04/22 01:23:53;;;;;;;49.63;34.97;;;8.70;99.90;;;;;;4970921;28;20132;-71
2022/04/22 01:26:19;;;;;;;49.97;35.17;;;8.70;99.90;;;;;;4975490;28;20046;-71
2022/04/22 01:28:47;;;;;;;55.45;36.75;;;8.70;99.90;;;;;;4974671;28;20054;-70
2022/04/22 01:31:14;;;;;;;55.65;37.30;;;8.70;99.90;;;;;;4978657;28;20069;-71
2022/04/22 01:33:41;;;;;;;50.38;35.92;;;8.70;99.90;;;;;;4993318;28;20058;-71
2022/04/22 01:36:08;;;;;;;56.08;38.60;;;8.70;99.90;;;;;;4993742;28;20046;-71
2022/04/22 01:38:35;;;;;;;50.50;35.72;;;8.70;99.90;;;;;;4993597;28;20057;-70
2022/04/22 01:41:02;;;;;;;48.30;35.35;;;8.70;99.90;;;;;;4978689;23;20043;-75
2022/04/22 01:43:29;;;;;;;52.00;36.65;;;8.70;99.90;;;;;;4969685;28;20055;-76
2022/04/22 01:45:56;;;;;;;57.83;36.17;;;8.70;99.90;;;;;;4956092;28;20087;-76
2022/04/22 01:48:22;;;;;;;55.30;36.83;;;8.70;99.90;;;;;;4979929;28;20058;-76
2022/04/22 01:50:52;;;;;;;49.97;36.15;;;8.70;99.90;;;;;;4962719;28;20543;-76
2022/04/22 01:53:18;;;;;;;47.72;36.35;;;8.70;99.90;;;;;;4965066;28;20066;-76
2022/04/22 01:55:46;;;;;;;51.50;36.40;;;8.80;99.90;;;;;;4961365;28;20600;-76
2022/04/22 01:58:13;;;;;;;49.33;35.75;;;8.80;99.90;;;;;;4949538;28;20050;-76
2022/04/22 02:00:40;;;;;;;50.80;36.53;;;8.70;99.90;;;;;;4948085;28;20359;-76
2022/04/22 02:03:06;;;;;;;49.78;34.90;;;8.70;99.90;;;;;;4963751;28;20082;-76
2022/04/22 02:05:33;;;;;;;50.88;34.05;;;8.70;99.90;;;;;;4960909;28;20509;-75
2022/04/22 02:08:01;;;;;;;47.22;34.42;;;8.70;99.90;;;;;;4980915;28;20055;-76
2022/04/22 02:10:27;;;;;;;52.35;35.75;;;8.80;99.90;;;;;;4964931;28;20046;-77
2022/04/22 02:12:54;;;;;;;52.45;35.58;;;8.80;99.90;;;;;;4956961;28;20548;-76
2022/04/22 02:15:21;;;;;;;50.63;35.38;;;8.90;99.90;;;;;;4980347;28;20096;-75
2022/04/22 02:17:48;;;;;;;50.95;33.85;;;8.90;99.90;;;;;;4963139;28;20122;-76
2022/04/22 02:20:15;;;;;;;51.78;34.33;;;8.90;99.90;;;;;;4973684;28;20485;-75
2022/04/22 02:22:41;;;;;;;46.80;32.53;;;8.90;99.90;;;;;;4950768;28;20568;-75
2022/04/22 02:25:08;;;;;;;50.58;34.45;;;8.80;99.90;;;;;;4963309;28;20047;-75
2022/04/22 02:30:23;;;;;;;44.42;30.73;;;8.80;99.90;;;;;;4997754;28;20054;-75
2022/04/22 02:32:50;;;;;;;46.90;33.40;;;8.80;99.90;;;;;;4966284;28;20043;-75
2022/04/22 02:35:21;;;;;;;46.90;32.95;;;8.80;99.90;;;;;;4964334;28;20051;-74
2022/04/22 02:37:49;;;;;;;44.20;29.50;;;8.80;99.90;;;;;;4965414;28;20047;-75
2022/04/22 02:45:26;;;;;;;51.53;32.40;;;8.70;99.90;;;;;;4962372;28;20047;-75
2022/04/22 02:45:49;;;;;;;48.00;32.60;;;8.70;99.90;;;;;;4964756;28;20074;-75
2022/04/22 02:48:16;;;;;;;46.15;33.78;;;8.70;99.90;;;;;;4965597;28;20051;-75
2022/04/22 02:50:43;;;;;;;44.85;32.63;;;8.60;99.90;;;;;;4956091;28;20505;-75
2022/04/22 02:53:10;;;;;;;48.65;32.40;;;8.70;99.90;;;;;;4966023;28;20070;-75
2022/04/22 02:55:40;;;;;;;46.08;31.00;;;8.70;99.90;;;;;;4963917;28;20106;-75
2022/04/22 02:58:07;;;;;;;45.35;29.42;;;8.70;99.90;;;;;;4963658;28;20078;-74
2022/04/22 03:00:33;;;;;;;49.10;31.33;;;8.60;99.90;;;;;;4981026;28;20204;-76
2022/04/22 03:03:02;;;;;;;45.60;29.33;;;8.50;99.90;;;;;;4966589;28;20051;-74
2022/04/22 03:05:29;;;;;;;43.58;29.52;;;8.50;99.90;;;;;;4984195;28;20046;-75
2022/04/22 03:07:56;;;;;;;39.70;29.88;;;8.60;99.90;;;;;;4975128;28;20054;-75
2022/04/22 03:10:22;;;;;;;42.67;29.70;;;8.60;99.90;;;;;;4962279;28;20702;-76
2022/04/22 03:12:49;;;;;;;41.65;27.85;;;8.60;99.90;;;;;;4956506;28;20097;-75
2022/04/22 03:15:16;;;;;;;41.45;28.70;;;8.60;99.90;;;;;;4955832;28;20563;-75
2022/04/22 03:17:43;;;;;;;43.60;28.67;;;8.60;99.90;;;;;;4965135;28;20059;-75
2022/04/22 03:20:11;;;;;;;39.75;27.35;;;8.60;99.90;;;;;;4977339;28;20101;-75
2022/04/22 03:22:37;;;;;;;39.13;27.70;;;8.60;99.90;;;;;;4960667;28;20130;-75
2022/04/22 03:25:05;;;;;;;39.92;27.52;;;8.60;99.90;;;;;;4962854;28;20585;-76
2022/04/22 03:27:31;;;;;;;41.08;27.85;;;8.60;99.90;;;;;;4964360;28;20113;-76
2022/04/22 03:29:58;;;;;;;44.15;29.60;;;8.60;99.90;;;;;;4948933;28;20355;-75
2022/04/22 03:32:25;;;;;;;40.85;27.50;;;8.50;99.90;;;;;;4947794;28;20071;-75
2022/04/22 03:34:52;;;;;;;43.22;28.58;;;8.50;99.90;;;;;;4964482;28;20038;-75
2022/04/22 03:37:18;;;;;;;44.33;30.17;;;8.50;99.90;;;;;;4964149;28;20201;-75
2022/04/22 03:39:45;;;;;;;41.72;28.42;;;8.40;99.90;;;;;;4962528;28;20514;-75
2022/04/22 03:42:12;;;;;;;39.63;27.52;;;8.40;99.90;;;;;;4945872;28;20102;-75
2022/04/22 03:44:38;;;;;;;41.30;28.05;;;8.40;99.90;;;;;;4964067;28;20505;-75
2022/04/22 03:47:07;;;;;;;46.58;30.48;;;8.40;99.90;;;;;;4947751;28;20051;-75
2022/04/22 03:49:34;;;;;;;42.53;29.70;;;8.40;99.90;;;;;;4963870;28;20109;-75
2022/04/22 03:52:00;;;;;;;45.95;29.77;;;8.40;99.90;;;;;;4963516;28;20050;-76
2022/04/22 03:54:27;;;;;;;43.35;29.58;;;8.40;99.90;;;;;;4947517;28;20038;-75
2022/04/22 03:59:39;;;;;;;40.42;29.10;;;8.40;99.90;;;;;;4964078;28;20047;-76
2022/04/22 04:02:07;;;;;;;45.63;30.90;;;8.50;99.90;;;;;;4949396;28;20066;-76
2022/04/22 04:04:34;;;;;;;40.30;28.90;;;8.40;99.90;;;;;;4963523;28;20065;-76
2022/04/22 04:07:01;;;;;;;41.60;30.33;;;8.50;99.90;;;;;;4963308;28;20042;-76
2022/04/22 04:17:44;;;;;;;41.05;30.35;;;8.50;99.90;;;;;;4962821;28;20481;-75
2022/04/22 04:23:14;;;;;;;39.47;28.83;;;8.50;99.90;;;;;;4958537;28;20058;-75
2022/04/22 04:25:43;;;;;;;40.45;28.95;;;8.50;99.90;;;;;;4959378;28;20678;-75
2022/04/22 04:28:10;;;;;;;42.53;30.08;;;8.50;99.90;;;;;;4962204;28;20054;-76
2022/04/22 04:30:38;;;;;;;43.10;31.10;;;8.40;99.90;;;;;;4962262;28;20054;-76
2022/04/22 04:33:06;;;;;;;41.55;29.38;;;8.50;99.90;;;;;;4961917;28;20191;-76
2022/04/22 04:35:34;;;;;;;40.15;27.73;;;8.50;99.90;;;;;;4963792;28;20081;-76
2022/04/22 04:38:02;;;;;;;41.38;30.17;;;8.40;99.90;;;;;;4962951;28;20097;-75
2022/04/22 04:40:29;;;;;;;42.88;29.85;;;8.40;99.90;;;;;;4961448;28;20047;-75
2022/04/22 04:42:56;;;;;;;41.05;30.90;;;8.40;99.90;;;;;;4945993;28;20055;-76
2022/04/22 04:45:22;;;;;;;37.88;28.45;;;8.50;99.90;;;;;;4961572;28;20564;-75
2022/04/22 04:47:49;;;;;;;41.25;30.77;;;8.50;99.90;;;;;;4963151;28;20051;-76
2022/04/22 04:50:16;;;;;;;37.95;29.35;;;8.40;99.90;;;;;;4957863;28;20085;-76
2022/04/22 04:52:43;;;;;;;39.28;29.60;;;8.50;99.90;;;;;;4990355;28;20106;-76
2022/04/22 04:55:13;;;;;;;43.22;31.25;;;8.40;99.90;;;;;;4953153;28;20057;-76
2022/04/22 04:57:41;;;;;;;39.78;30.35;;;8.50;99.90;;;;;;4963094;28;20058;-76
2022/04/22 05:00:15;;;;;;;40.00;31.42;;;8.50;99.90;;;;;;4958749;28;20050;-75
2022/04/22 05:02:42;;;;;;;43.03;32.60;;;8.60;99.90;;;;;;4978597;28;20594;-76
2022/04/22 05:05:10;;;;;;;40.33;30.00;;;8.60;99.90;;;;;;4977929;28;20055;-75
2022/04/22 05:07:49;;;;;;;39.85;30.00;;;8.60;99.90;;;;;;4978715;28;20051;-76
2022/04/22 05:10:18;;;;;;;39.88;30.25;;;8.60;99.90;;;;;;4992772;28;20457;-75
2022/04/22 05:12:45;;;;;;;39.25;31.40;;;8.60;99.90;;;;;;4952309;28;20470;-75
2022/04/22 05:15:12;;;;;;;41.60;32.22;;;8.60;99.90;;;;;;4942229;28;20055;-74
2022/04/22 05:17:43;;;;;;;45.17;31.05;;;8.60;99.90;;;;;;4944466;28;20568;-75
2022/04/22 05:20:12;;;;;;;40.70;32.35;;;8.60;99.90;;;;;;4960703;28;20043;-76
2022/04/22 05:22:39;;;;;;;38.75;31.67;;;8.60;99.90;;;;;;4957839;28;20069;-76
2022/04/22 05:25:08;;;;;;;40.70;30.80;;;8.70;99.90;;;;;;4951591;28;20539;-75
2022/04/22 05:27:35;;;;;;;43.08;31.30;;;8.70;99.90;;;;;;4948907;28;20110;-75
2022/04/22 05:32:49;;;;;;;49.42;32.72;;;8.80;99.90;;;;;;4943087;28;20174;-76
2022/04/22 05:35:20;;;;;;;38.30;32.00;;;8.80;99.90;;;;;;4942036;28;20065;-76
2022/04/22 05:37:51;;;;;;;43.75;32.25;;;8.80;99.90;;;;;;4975228;28;20693;-75
2022/04/22 05:40:20;;;;;;;41.47;32.55;;;8.80;99.90;;;;;;4979344;28;20497;-75
2022/04/22 05:42:49;;;;;;;38.80;30.50;;;8.80;99.90;;;;;;4965107;28;20046;-75
2022/04/22 05:45:17;;;;;;;42.83;32.30;;;8.80;99.90;;;;;;4964245;28;20046;-76
2022/04/22 05:47:44;;;;;;;42.30;31.15;;;8.90;99.90;;;;;;4972887;28;20051;-75
2022/04/22 05:50:13;;;;;;;48.15;32.90;;;8.90;99.90;;;;;;4954200;28;20035;-75
2022/04/22 05:52:40;;;;;;;48.47;35.38;;;8.80;99.90;;;;;;4988756;28;20063;-75
2022/04/22 05:55:16;;;;;;;44.13;33.90;;;8.90;99.90;;;;;;4953041;28;20053;-76
2022/04/22 05:57:44;;;;;;;42.42;32.33;;;9.00;99.90;;;;;;4961951;28;20403;-75
2022/04/22 06:00:16;;;;;;;46.40;35.65;;;9.00;99.90;;;;;;4949756;28;20047;-76
2022/04/22 06:02:44;;;;;;;42.47;33.80;;;9.00;99.90;;;;;;4965362;28;20081;-76
2022/04/22 06:05:13;;;;;;;50.42;39.42;;;9.00;99.90;;;;;;4968598;28;20058;-75
2022/04/22 06:07:41;;;;;;;43.45;34.35;;;9.10;99.90;;;;;;4965701;28;20093;-75
2022/04/22 06:12:55;;;;;;;46.35;35.13;;;9.10;99.90;;;;;;4953600;28;20067;-76
2022/04/22 06:15:22;;;;;;;42.13;34.25;;;9.10;99.90;;;;;;4945959;28;20118;-76
2022/04/22 06:17:49;;;;;;;42.40;35.17;;;9.20;99.90;;;;;;4978590;28;20047;-75
2022/04/22 06:20:16;;;;;;;40.92;34.28;;;9.30;99.90;;;;;;4977614;28;20109;-75
2022/04/22 06:22:43;;;;;;;40.30;34.80;;;9.40;99.90;;;;;;4953719;28;20043;-75
2022/04/22 06:25:10;;;;;;;47.13;35.65;;;9.20;99.90;;;;;;4964139;28;20097;-76
2022/04/22 06:27:40;;;;;;;43.05;35.50;;;9.30;99.90;;;;;;4964823;28;20046;-76
2022/04/22 06:30:21;;;;;;;40.38;33.75;;;9.20;99.90;;;;;;4968843;28;20677;-76
2022/04/22 06:32:50;;;;;;;43.20;35.08;;;9.20;99.90;;;;;;4970237;28;20227;-76
2022/04/22 06:35:19;;;;;;;45.75;34.90;;;9.30;99.90;;;;;;4964192;28;20506;-76
2022/04/22 06:37:48;;;;;;;44.38;33.78;;;9.40;99.90;;;;;;4965068;28;20054;-77
2022/04/22 06:45:50;;;;;;;43.13;33.53;;;9.30;99.90;;;;;;4965076;28;20065;-74
2022/04/22 06:48:21;;;;;;;46.72;36.60;;;9.30;99.90;;;;;;4965230;28;20055;-75
2022/04/22 06:51:08;;;;;;;47.25;34.67;;;9.30;99.90;;;;;;4961402;28;20073;-76
2022/04/22 06:53:35;;;;;;;46.70;35.28;;;9.30;99.90;;;;;;4965027;28;20070;-76
2022/04/22 06:56:05;;;;;;;42.35;34.95;;;9.20;99.90;;;;;;4947963;28;20526;-76
2022/04/22 06:58:33;;;;;;;40.20;34.40;;;9.40;99.90;;;;;;4964728;28;20074;-76
2022/04/22 07:01:00;;;;;;;44.97;36.03;;;9.40;99.90;;;;;;4965392;28;20047;-76
2022/04/22 07:03:27;;;;;;;40.65;33.83;;;9.60;99.90;;;;;;4966193;28;20055;-75
2022/04/22 07:05:54;;;;;;;41.92;35.05;;;9.70;99.90;;;;;;4964776;28;20070;-76
2022/04/22 07:08:21;;;;;;;40.90;36.50;;;9.70;99.90;;;;;;4963475;28;20733;-76
2022/04/22 07:10:50;;;;;;;39.75;35.50;;;9.90;99.90;;;;;;4964617;28;20047;-75
2022/04/22 07:13:17;;;;;;;39.92;35.60;;;10.40;99.90;;;;;;4964496;28;20043;-76
2022/04/22 07:15:45;;;;;;;40.63;36.40;;;10.90;99.90;;;;;;4967070;28;20137;-75
2022/04/22 07:18:13;;;;;;;42.08;37.85;;;11.20;99.90;;;;;;4982563;28;20074;-76
2022/04/22 07:20:41;;;;;;;42.63;38.13;;;11.20;99.90;;;;;;4938033;28;20039;-76
2022/04/22 07:23:14;;;;;;;43.65;39.33;;;11.10;99.90;;;;;;4945905;28;20047;-75
2022/04/22 07:25:44;;;;;;;41.30;37.17;;;11.30;99.90;;;;;;4959980;28;20047;-76
2022/04/22 07:28:12;;;;;;;43.00;38.78;;;11.40;99.90;;;;;;4964551;28;20059;-76
2022/04/22 07:30:43;;;;;;;41.53;37.30;;;11.30;99.90;;;;;;4964508;28;20067;-76
2022/04/22 07:33:11;;;;;;;46.58;40.20;;;11.20;99.90;;;;;;4964182;28;20494;-76
2022/04/22 07:35:38;;;;;;;44.83;40.53;;;11.00;99.90;;;;;;4983490;28;20902;-76
2022/04/22 07:38:04;;;;;;;41.08;37.10;;;11.20;99.90;;;;;;4967956;28;20050;-75
2022/04/22 07:40:32;;;;;;;43.05;38.50;;;11.20;99.90;;;;;;4968040;28;20055;-76
2022/04/22 07:48:34;;;;;;;43.67;37.88;;;10.90;99.90;;;;;;4979375;28;20054;-75
2022/04/22 07:51:01;;;;;;;46.22;38.90;;;10.80;99.90;;;;;;4960699;28;20043;-75
2022/04/22 07:53:27;;;;;;;43.20;38.50;;;10.80;99.90;;;;;;4963983;28;20113;-75
2022/04/22 07:55:54;;;;;;;44.55;39.83;;;11.00;99.90;;;;;;4960956;28;20736;-76
2022/04/22 07:58:21;;;;;;;43.75;39.15;;;10.80;99.90;;;;;;4948761;28;20054;-75
2022/04/22 08:00:48;;;;;;;44.65;40.08;;;10.90;99.90;;;;;;4962040;28;20078;-75
2022/04/22 08:03:15;;;;;;;44.20;39.38;;;10.80;99.90;;;;;;4955190;28;20042;-75
2022/04/22 08:05:42;;;;;;;46.58;39.38;;;10.70;99.90;;;;;;4963613;28;20101;-75
2022/04/22 08:08:09;;;;;;;109.22;82.97;;;10.80;99.90;;;;;;4963139;28;20054;-76
2022/04/22 08:10:37;;;;;;;125.80;93.53;;;10.90;99.90;;;;;;4963016;28;20051;-76
2022/04/22 08:13:05;;;;;;;58.20;46.67;;;10.80;99.90;;;;;;4950102;28;20046;-75
2022/04/22 08:15:35;;;;;;;60.92;51.58;;;10.70;99.90;;;;;;4962896;28;20101;-76
2022/04/22 08:18:03;;;;;;;94.40;55.22;;;10.80;99.90;;;;;;4983283;23;20352;-73
2022/04/22 08:20:32;;;;;;;75.35;63.13;;;10.70;99.90;;;;;;4954590;28;20205;-72
2022/04/22 08:22:59;;;;;;;50.08;43.35;;;10.70;99.90;;;;;;4949116;28;20051;-72
2022/04/22 08:25:27;;;;;;;50.00;41.58;;;10.70;99.90;;;;;;4967279;28;20042;-71
2022/04/22 08:27:54;;;;;;;47.10;39.97;;;10.70;99.90;;;;;;4967199;28;20050;-71
2022/04/22 08:30:21;;;;;;;49.13;41.92;;;10.60;99.90;;;;;;4983692;28;20120;-72
2022/04/22 08:32:48;;;;;;;46.15;41.25;;;10.60;99.90;;;;;;4993282;28;20254;-71
2022/04/22 08:35:15;;;;;;;47.83;41.40;;;10.60;99.90;;;;;;4987471;28;20419;-71
2022/04/22 08:37:44;;;;;;;46.50;41.42;;;10.60;99.90;;;;;;4971037;28;20524;-72
2022/04/22 08:40:12;;;;;;;45.58;39.10;;;10.70;99.90;;;;;;4970745;28;20042;-71
2022/04/22 08:42:41;;;;;;;45.38;39.97;;;10.70;99.90;;;;;;4972547;28;20046;-72
2022/04/22 08:45:09;;;;;;;46.63;40.38;;;10.70;99.90;;;;;;4970511;28;20281;-72
2022/04/22 08:50:30;;;;;;;47.85;41.22;;;10.70;99.90;;;;;;4962832;28;20210;-71
2022/04/22 08:53:08;;;;;;;44.10;39.40;;;10.70;99.90;;;;;;4971785;28;20362;-72
2022/04/22 08:55:36;;;;;;;47.95;40.47;;;10.60;99.90;;;;;;4970325;28;20061;-72
2022/04/22 08:58:05;;;;;;;43.92;39.15;;;10.60;99.90;;;;;;4971958;28;20046;-71
2022/04/22 09:00:36;;;;;;;47.00;40.80;;;10.50;99.90;;;;;;4969219;28;20259;-72
2022/04/22 09:03:03;;;;;;;44.72;39.72;;;10.40;99.90;;;;;;4969701;28;20084;-72
2022/04/22 09:05:34;;;;;;;41.03;36.58;;;10.50;99.90;;;;;;4971478;28;20124;-71
2022/04/22 09:08:01;;;;;;;46.92;38.38;;;10.50;99.90;;;;;;4970855;28;20061;-71
2022/04/22 09:10:28;;;;;;;48.03;39.95;;;10.50;99.90;;;;;;4969770;28;20491;-70
2022/04/22 09:12:57;;;;;;;45.42;37.88;;;10.50;99.90;;;;;;4969702;28;20302;-72
2022/04/22 09:15:26;;;;;;;50.88;38.05;;;10.30;99.90;;;;;;4972986;28;20105;-72
2022/04/22 09:17:57;;;;;;;47.20;37.70;;;10.40;99.90;;;;;;4970328;28;20062;-71
2022/04/22 09:20:30;;;;;;;48.83;37.70;;;10.20;99.90;;;;;;4964594;28;20049;-72
2022/04/22 09:22:57;;;;;;;44.85;36.80;;;9.80;99.90;;;;;;4968557;28;20054;-72
2022/04/22 09:25:25;;;;;;;49.83;37.95;;;9.80;99.90;;;;;;4971720;28;20053;-72
2022/04/22 09:27:52;;;;;;;48.38;35.33;;;9.70;99.90;;;;;;4981895;28;20105;-72
2022/04/22 09:30:31;;;;;;;46.45;35.45;;;9.60;99.90;;;;;;4965286;28;20512;-71
2022/04/22 09:32:58;;;;;;;45.13;35.80;;;9.60;99.90;;;;;;4977694;28;20327;-71
2022/04/22 09:35:26;;;;;;;43.00;35.28;;;9.70;99.90;;;;;;4982918;28;20653;-72
2022/04/22 09:43:46;;;;;;;43.60;35.97;;;9.70;99.90;;;;;;4966205;28;20042;-72
2022/04/22 09:46:30;;;;;;;44.25;36.92;;;9.70;99.90;;;;;;4977313;28;20541;-71
2022/04/22 09:48:59;;;;;;;41.97;36.45;;;9.70;99.90;;;;;;4959559;28;20138;-71
2022/04/22 09:51:30;;;;;;;45.03;37.20;;;9.60;99.90;;;;;;4956028;28;20156;-70
2022/04/22 09:54:06;;;;;;;44.35;36.35;;;9.60;99.90;;;;;;4959852;28;20921;-71
2022/04/22 09:56:33;;;;;;;43.30;35.42;;;9.60;99.90;;;;;;4967198;28;20050;-71
2022/04/22 09:59:23;;;;;;;46.65;36.35;;;9.50;99.90;;;;;;4964598;28;20366;-71
2022/04/22 10:01:51;;;;;;;44.40;36.47;;;9.50;99.90;;;;;;4963346;28;20104;-72
2022/04/22 10:04:30;;;;;;;44.95;36.13;;;9.40;99.90;;;;;;4958489;28;20211;-70
2022/04/22 10:06:59;;;;;;;43.97;33.47;;;9.40;99.90;;;;;;4973060;28;20052;-72
2022/04/22 10:09:28;;;;;;;40.95;34.60;;;9.40;99.90;;;;;;4976644;28;20117;-72
2022/04/22 10:11:57;;;;;;;45.95;36.10;;;9.40;99.90;;;;;;4977498;28;20100;-71
2022/04/22 10:14:35;;;;;;;41.30;35.45;;;9.60;99.90;;;;;;4958521;28;20055;-71
2022/04/22 10:17:04;;;;;;;40.70;36.03;;;9.70;99.90;;;;;;4973859;28;20034;-72
2022/04/22 10:19:35;;;;;;;44.92;34.67;;;9.80;99.90;;;;;;4970556;28;20124;-71
2022/04/22 10:22:07;;;;;;;41.10;35.65;;;9.90;99.90;;;;;;4967364;28;20138;-72
2022/04/22 10:24:34;;;;;;;42.80;36.72;;;9.80;99.90;;;;;;4969346;28;20647;-72
2022/04/22 10:27:02;;;;;;;41.13;35.10;;;9.90;99.90;;;;;;4982616;28;20573;-72
2022/04/22 10:29:49;;;;;;;43.30;36.55;;;10.00;99.90;;;;;;4983291;28;20077;-72
2022/04/22 10:32:18;;;;;;;39.97;35.72;;;10.10;99.90;;;;;;4990357;28;20077;-71
2022/04/22 10:34:45;;;;;;;39.05;34.83;;;10.00;99.90;;;;;;4981546;28;20043;-72
2022/04/22 10:37:23;;;;;;;39.60;35.35;;;9.90;99.90;;;;;;4962956;28;20459;-71
2022/04/22 10:39:52;;;;;;;38.95;34.35;;;9.80;99.90;;;;;;4955594;28;20452;-71
2022/04/22 10:42:41;;;;;;;39.35;35.08;;;9.90;99.90;;;;;;4972141;28;20050;-74
2022/04/22 10:47:55;;;;;;;43.83;35.40;;;9.80;99.90;;;;;;4976328;28;20099;-72
2022/04/22 10:50:37;;;;;;;39.17;34.83;;;9.80;99.90;;;;;;4968747;28;20065;-71
2022/04/22 10:53:08;;;;;;;41.83;35.15;;;9.80;99.90;;;;;;4974933;28;20058;-72
2022/04/22 10:55:41;;;;;;;40.92;36.70;;;10.00;99.90;;;;;;4973206;28;20046;-71
2022/04/22 10:58:27;;;;;;;42.38;36.85;;;10.00;99.90;;;;;;4975436;28;20081;-72
2022/04/22 11:00:59;;;;;;;41.65;37.25;;;10.00;99.90;;;;;;4974859;28;20289;-72
2022/04/22 11:03:34;;;;;;;40.75;35.35;;;10.10;99.90;;;;;;4992953;28;20108;-69
2022/04/22 11:06:06;;;;;;;42.47;36.97;;;10.00;99.90;;;;;;4973993;28;20620;-69
2022/04/22 11:08:40;;;;;;;41.75;35.88;;;9.80;99.90;;;;;;4989575;28;20054;-69
2022/04/22 11:11:18;;;;;;;40.42;35.63;;;9.90;99.90;;;;;;4973423;28;20252;-68
2022/04/22 11:13:47;;;;;;;42.78;35.75;;;9.90;99.90;;;;;;4974765;28;20116;-70
2022/04/22 11:16:19;;;;;;;40.75;36.70;;;10.10;99.90;;;;;;4973499;28;20062;-70
2022/04/22 11:19:09;;;;;;;42.60;36.75;;;10.10;99.90;;;;;;4973358;28;20046;-71
2022/04/22 11:21:40;;;;;;;39.47;35.65;;;10.20;99.90;;;;;;4972203;28;20049;-70
2022/04/22 11:24:15;;;;;;;40.10;36.05;;;10.30;99.90;;;;;;4971751;28;20508;-70
2022/04/22 11:26:44;;;;;;;42.00;37.45;;;10.40;99.90;;;;;;4991437;28;20041;-70
2022/04/22 11:29:11;;;;;;;40.40;36.22;;;10.60;99.90;;;;;;4973589;28;20299;-70
2022/04/22 11:31:39;;;;;;;41.53;37.17;;;10.60;99.90;;;;;;4969811;28;20047;-72
2022/04/22 11:34:11;;;;;;;38.47;34.45;;;10.80;99.90;;;;;;4992012;28;20084;-71
2022/04/22 11:36:49;;;;;;;39.03;35.22;;;11.10;99.90;;;;;;4994080;28;20073;-69
2022/04/22 11:39:22;;;;;;;39.42;35.53;;;11.40;99.90;;;;;;4993389;28;20109;-70
2022/04/22 11:41:53;;;;;;;41.10;37.20;;;11.60;99.90;;;;;;4969836;28;20058;-69
2022/04/22 11:44:21;;;;;;;36.25;32.65;;;11.90;99.90;;;;;;4973407;28;20050;-70
2022/04/22 11:46:51;;;;;;;39.53;36.08;;;12.00;99.90;;;;;;4974867;28;20580;-73
2022/04/22 11:49:19;;;;;;;39.40;35.72;;;11.60;99.90;;;;;;4969282;28;20524;-74
2022/04/22 11:51:50;;;;;;;38.47;34.92;;;11.60;99.90;;;;;;4953942;28;20110;-73
2022/04/22 11:54:25;;;;;;;41.03;37.20;;;11.50;99.90;;;;;;4986425;28;20049;-73
2022/04/22 11:56:53;;;;;;;36.97;33.50;;;11.90;99.90;;;;;;4992421;28;20037;-72
2022/04/22 11:59:22;;;;;;;38.45;34.95;;;12.00;99.90;;;;;;4977105;28;20112;-69
2022/04/22 12:10:07;;;;;;;40.30;36.67;;;12.10;99.90;;;;;;4967453;28;19964;-69
2022/04/22 12:12:49;;;;;;;43.05;38.97;;;12.20;99.90;;;;;;4964806;28;20229;-70
2022/04/22 12:15:21;;;;;;;38.88;35.55;;;12.30;99.90;;;;;;4968853;28;20061;-71
2022/04/22 12:17:48;;;;;;;39.60;36.00;;;12.40;99.90;;;;;;4969660;28;20054;-72
2022/04/22 12:20:15;;;;;;;38.55;35.08;;;12.30;99.90;;;;;;4967037;28;20047;-71
2022/04/22 12:22:42;;;;;;;40.70;36.90;;;12.50;99.90;;;;;;4964717;28;20057;-71
2022/04/22 12:25:19;;;;;;;42.50;38.78;;;12.80;99.90;;;;;;4950987;28;20523;-72
2022/04/22 12:28:26;;;;;;;39.63;36.08;;;13.10;99.90;;;;;;4970130;28;20675;-73
2022/04/22 12:30:53;;;;;;;40.38;36.58;;;12.70;99.90;;;;;;4927661;28;20142;-71
2022/04/22 12:33:23;;;;;;;39.67;36.05;;;12.50;99.90;;;;;;4931070;28;20042;-72
2022/04/22 12:36:07;;;;;;;39.88;36.38;;;12.90;99.90;;;;;;4950094;28;20066;-70
2022/04/22 12:38:36;;;;;;;38.10;34.65;;;13.00;99.90;;;;;;4971405;28;20061;-71
2022/04/22 12:41:14;;;;;;;38.85;35.50;;;13.30;99.90;;;;;;4967583;28;20054;-72
2022/04/22 12:43:46;;;;;;;40.03;36.75;;;13.30;99.90;;;;;;4968698;28;20108;-72
2022/04/22 12:52:14;;;;;;;34.63;31.55;;;13.60;99.90;;;;;;4949676;28;20700;-70
2022/04/22 12:54:45;;;;;;;37.08;33.58;;;13.70;99.90;;;;;;4954744;28;20093;-71
2022/04/22 12:57:32;;;;;;;36.92;34.00;;;13.80;99.90;;;;;;4979008;28;20690;-71
2022/04/22 12:59:59;;;;;;;36.95;33.90;;;13.80;99.90;;;;;;4991129;28;20137;-71
2022/04/22 13:02:46;;;;;;;36.35;33.40;;;14.00;99.90;;;;;;4978810;28;20131;-73
2022/04/22 13:05:20;;;;;;;36.58;33.53;;;13.60;99.90;;;;;;4960552;28;20051;-70
2022/04/22 13:07:52;;;;;;;34.90;32.10;;;13.10;99.90;;;;;;4980640;28;20534;-71
2022/04/22 13:10:21;;;;;;;38.53;35.15;;;13.00;99.90;;;;;;4967489;28;20061;-70
2022/04/22 13:12:49;;;;;;;37.83;34.72;;;12.80;99.90;;;;;;4968426;28;20103;-71
2022/04/22 13:15:18;;;;;;;35.92;32.95;;;13.20;99.90;;;;;;4969245;28;20054;-70
2022/04/22 13:17:51;;;;;;;35.97;33.13;;;13.50;99.90;;;;;;4971187;28;20058;-71
2022/04/22 13:20:20;;;;;;;34.85;32.20;;;13.60;99.90;;;;;;4969804;28;20708;-72
2022/04/22 13:22:48;;;;;;;35.78;32.75;;;13.90;99.90;;;;;;4980955;28;20050;-71
2022/04/22 13:25:17;;;;;;;33.70;30.83;;;13.90;99.90;;;;;;4948111;28;20053;-71
2022/04/22 13:27:44;;;;;;;36.55;33.58;;;13.40;99.90;;;;;;4979035;28;20045;-70
2022/04/22 13:30:12;;;;;;;34.88;32.17;;;13.30;99.90;;;;;;4977068;28;20066;-70
2022/04/22 13:32:40;;;;;;;35.72;32.63;;;13.40;99.90;;;;;;4967271;28;20365;-70
2022/04/22 13:35:10;;;;;;;35.17;32.20;;;13.30;99.90;;;;;;4969339;28;20351;-72
2022/04/22 13:37:37;;;;;;;36.25;33.33;;;13.20;99.90;;;;;;4970100;28;20058;-72
2022/04/22 13:40:05;;;;;;;32.53;29.88;;;13.50;99.90;;;;;;4969306;28;20042;-70
2022/04/22 13:42:32;;;;;;;35.05;32.08;;;13.70;99.90;;;;;;4968154;28;20158;-70
2022/04/22 13:53:14;;;;;;;35.85;32.88;;;13.70;99.90;;;;;;4970715;28;20728;-73
2022/04/22 13:55:41;;;;;;;33.90;31.05;;;13.50;99.90;;;;;;4991849;28;20038;-73
2022/04/22 13:58:08;;;;;;;34.63;31.70;;;13.40;99.90;;;;;;4989976;28;20372;-72
2022/04/22 14:00:35;;;;;;;36.15;33.15;;;13.10;99.90;;;;;;4985630;28;20108;-74